Time;durP1;ratioP1;P1;durP2;ratioP2;P2;SDS_P1;SDS_P2;PMS_P1;PMS_P2;Temp;Humidity;BMP_temperature;BMP_pressure;BME280_temperature;BME280_humidity;BME280_pressure;Samples;Min_cycle;Max_cycle;Signal;HPM_P1;HPM_P2
2022/03/02 00:01:37;;;;;;;38.30;27.58;;;5.70;99.90;;;;;;4958270;28;20125;-82
2022/03/02 00:04:03;;;;;;;39.55;29.60;;;5.70;99.90;;;;;;4958791;28;20100;-82
2022/03/02 00:06:28;;;;;;;39.28;28.83;;;5.80;99.90;;;;;;4941633;28;20042;-82
2022/03/02 00:08:54;;;;;;;40.30;29.38;;;5.60;99.90;;;;;;4958371;28;20038;-82
2022/03/02 00:11:20;;;;;;;38.33;28.17;;;5.60;99.90;;;;;;4958068;28;20116;-82
2022/03/02 00:13:46;;;;;;;40.03;30.25;;;5.70;99.90;;;;;;4958258;28;20414;-82
2022/03/02 00:16:12;;;;;;;39.60;29.60;;;5.70;99.90;;;;;;4942433;28;20189;-82
2022/03/02 00:18:39;;;;;;;36.10;27.92;;;5.60;99.90;;;;;;4958147;28;20042;-82
2022/03/02 00:21:05;;;;;;;40.13;28.50;;;5.60;99.90;;;;;;4973095;28;20039;-82
2022/03/02 00:23:31;;;;;;;39.38;28.40;;;5.60;99.90;;;;;;4974413;28;20399;-82
2022/03/02 00:25:57;;;;;;;37.60;28.00;;;5.60;99.90;;;;;;4958063;28;20035;-83
2022/03/02 00:28:23;;;;;;;41.20;29.65;;;5.70;99.90;;;;;;4974244;28;20082;-83
2022/03/02 00:30:49;;;;;;;39.58;28.92;;;6.10;99.90;;;;;;4957857;28;20078;-82
2022/03/02 00:33:15;;;;;;;37.75;29.05;;;5.60;99.90;;;;;;4958124;28;20038;-82
2022/03/02 00:35:41;;;;;;;41.95;29.77;;;5.60;99.90;;;;;;4956944;28;20046;-82
2022/03/02 00:38:10;;;;;;;40.53;29.77;;;5.60;99.90;;;;;;4957788;28;20045;-82
2022/03/02 00:40:37;;;;;;;39.80;29.88;;;5.70;99.90;;;;;;4957691;28;20049;-82
2022/03/02 00:43:03;;;;;;;40.03;30.35;;;5.70;99.90;;;;;;4973856;28;20130;-82
2022/03/02 00:45:31;;;;;;;40.63;29.65;;;5.60;99.90;;;;;;4957540;28;20478;-81
2022/03/02 00:48:01;;;;;;;39.72;30.35;;;5.50;99.90;;;;;;4973741;28;20042;-82
2022/03/02 00:50:27;;;;;;;41.10;28.98;;;5.50;99.90;;;;;;4940659;28;20054;-82
2022/03/02 00:52:53;;;;;;;42.10;30.48;;;5.40;99.90;;;;;;4973635;28;20043;-82
2022/03/02 00:55:19;;;;;;;41.00;30.23;;;5.40;99.90;;;;;;4957257;28;20051;-82
2022/03/02 00:57:46;;;;;;;41.55;30.02;;;5.40;99.90;;;;;;4957553;28;20039;-82
2022/03/02 01:00:12;;;;;;;40.10;29.45;;;5.40;99.90;;;;;;4957077;28;20044;-82
2022/03/02 01:02:38;;;;;;;41.63;29.85;;;5.40;99.90;;;;;;4973504;28;20443;-82
2022/03/02 01:05:05;;;;;;;41.95;30.25;;;6.00;99.90;;;;;;4972794;28;20527;-82
2022/03/02 01:07:32;;;;;;;41.05;30.77;;;6.30;99.90;;;;;;4957254;28;20039;-82
2022/03/02 01:09:58;;;;;;;41.83;30.60;;;5.30;99.90;;;;;;4957074;28;20081;-82
2022/03/02 01:12:24;;;;;;;39.90;29.80;;;5.20;99.90;;;;;;4957601;28;20495;-82
2022/03/02 01:14:50;;;;;;;42.30;29.85;;;5.20;99.90;;;;;;4956818;28;20134;-82
2022/03/02 01:17:17;;;;;;;42.58;30.38;;;5.20;99.90;;;;;;4957134;28;20105;-82
2022/03/02 01:19:43;;;;;;;42.17;30.95;;;5.10;99.90;;;;;;4973340;28;20574;-82
2022/03/02 01:22:08;;;;;;;42.75;30.70;;;5.20;99.90;;;;;;4956381;28;20085;-82
2022/03/02 01:24:34;;;;;;;45.50;31.15;;;5.10;99.90;;;;;;4953662;29;20075;-82
2022/03/02 01:27:03;;;;;;;43.35;31.20;;;5.10;99.90;;;;;;4937925;29;20488;-82
2022/03/02 01:29:34;;;;;;;40.78;30.30;;;5.10;99.90;;;;;;4938275;29;20043;-82
2022/03/02 01:32:00;;;;;;;42.75;31.08;;;5.00;99.90;;;;;;4938714;29;20050;-82
2022/03/02 01:34:27;;;;;;;41.65;31.75;;;5.10;99.90;;;;;;4939062;28;20492;-82
2022/03/02 01:36:53;;;;;;;42.55;30.63;;;5.00;99.90;;;;;;4953276;29;20134;-82
2022/03/02 01:39:18;;;;;;;40.08;30.15;;;5.00;99.90;;;;;;4937820;29;20135;-82
2022/03/02 01:41:45;;;;;;;42.08;30.92;;;5.00;99.90;;;;;;4969705;28;20131;-82
2022/03/02 01:44:11;;;;;;;43.92;31.60;;;5.00;99.90;;;;;;4953579;29;20126;-82
2022/03/02 01:46:37;;;;;;;43.40;31.08;;;5.00;99.90;;;;;;4969752;28;20130;-82
2022/03/02 01:49:04;;;;;;;41.30;30.10;;;5.00;99.90;;;;;;4969809;28;20126;-82
2022/03/02 01:51:29;;;;;;;43.35;31.17;;;5.00;99.90;;;;;;4952726;29;20045;-82
2022/03/02 01:53:55;;;;;;;44.65;31.92;;;5.00;99.90;;;;;;4953622;29;20043;-82
2022/03/02 01:56:21;;;;;;;43.75;31.85;;;5.00;99.90;;;;;;4953594;29;20043;-82
2022/03/02 01:58:47;;;;;;;42.63;30.60;;;4.90;99.90;;;;;;4953564;29;20066;-82
2022/03/02 02:01:14;;;;;;;42.70;30.77;;;4.90;99.90;;;;;;4953283;28;20040;-82
2022/03/02 02:03:40;;;;;;;41.83;30.48;;;4.90;99.90;;;;;;4970318;28;20043;-82
2022/03/02 02:06:06;;;;;;;42.80;30.60;;;4.90;99.90;;;;;;4972568;28;20054;-83
2022/03/02 02:08:32;;;;;;;42.25;30.77;;;4.90;99.90;;;;;;4960976;28;20034;-82
2022/03/02 02:11:00;;;;;;;44.70;32.05;;;4.90;99.90;;;;;;4956354;29;20047;-83
2022/03/02 02:13:27;;;;;;;46.33;31.33;;;4.80;99.90;;;;;;4957197;29;20047;-82
2022/03/02 02:15:53;;;;;;;44.20;31.25;;;4.80;99.90;;;;;;4941001;29;20049;-82
2022/03/02 02:18:19;;;;;;;43.70;30.40;;;4.70;99.90;;;;;;4957449;29;20470;-82
2022/03/02 02:20:45;;;;;;;44.88;32.13;;;5.80;99.90;;;;;;4956368;29;20043;-82
2022/03/02 02:23:12;;;;;;;46.28;32.05;;;4.70;99.90;;;;;;4957404;29;20414;-82
2022/03/02 02:25:38;;;;;;;43.05;31.27;;;5.40;99.90;;;;;;4956821;29;20109;-82
2022/03/02 02:28:04;;;;;;;43.95;30.98;;;4.70;99.90;;;;;;4956920;29;20075;-82
2022/03/02 02:30:30;;;;;;;44.70;30.90;;;4.60;99.90;;;;;;4940705;29;20101;-82
2022/03/02 02:32:57;;;;;;;45.28;32.33;;;4.60;99.90;;;;;;4956865;29;20182;-82
2022/03/02 02:35:25;;;;;;;47.38;31.13;;;4.60;99.90;;;;;;4939872;29;20154;-82
2022/03/02 02:37:50;;;;;;;44.72;31.08;;;4.60;99.90;;;;;;4972982;28;20044;-82
2022/03/02 02:40:19;;;;;;;47.75;32.75;;;4.50;99.90;;;;;;4940509;29;20074;-82
2022/03/02 02:42:45;;;;;;;43.83;31.88;;;4.90;99.90;;;;;;4989350;28;20489;-82
2022/03/02 02:45:15;;;;;;;44.17;31.55;;;5.20;99.90;;;;;;4954227;29;20058;-82
2022/03/02 02:47:42;;;;;;;47.58;32.00;;;4.50;99.90;;;;;;4972685;28;20050;-82
2022/03/02 02:50:18;;;;;;;43.22;31.08;;;4.60;99.90;;;;;;4987966;28;20090;-82
2022/03/02 02:52:45;;;;;;;46.08;32.03;;;4.60;99.90;;;;;;4972491;28;20126;-82
2022/03/02 02:55:13;;;;;;;46.85;32.75;;;4.60;99.90;;;;;;4972306;28;20078;-82
2022/03/02 02:57:39;;;;;;;47.85;32.35;;;4.60;99.90;;;;;;4956593;28;20506;-82
2022/03/02 03:00:08;;;;;;;47.08;32.78;;;4.60;99.90;;;;;;4940457;29;20043;-82
2022/03/02 03:02:34;;;;;;;46.60;32.30;;;4.60;99.90;;;;;;4956410;29;20051;-82
2022/03/02 03:05:00;;;;;;;47.30;32.83;;;4.60;99.90;;;;;;4923639;29;20491;-82
2022/03/02 03:07:26;;;;;;;46.38;33.03;;;4.60;99.90;;;;;;4940197;29;20538;-82
2022/03/02 03:09:51;;;;;;;44.63;31.70;;;4.60;99.90;;;;;;4940185;29;20043;-82
2022/03/02 03:12:17;;;;;;;48.55;32.88;;;4.60;99.90;;;;;;4940295;29;20496;-82
2022/03/02 03:14:43;;;;;;;47.75;32.97;;;4.60;99.90;;;;;;4939589;28;20106;-82
2022/03/02 03:17:09;;;;;;;45.90;32.80;;;4.60;99.90;;;;;;4955237;29;20134;-82
2022/03/02 03:19:35;;;;;;;48.03;33.38;;;4.80;99.90;;;;;;4956168;28;20101;-82
2022/03/02 03:22:06;;;;;;;46.75;32.10;;;4.60;99.90;;;;;;4955107;29;20046;-82
2022/03/02 03:24:32;;;;;;;49.15;34.33;;;4.50;99.90;;;;;;4955863;29;20040;-82
2022/03/02 03:26:58;;;;;;;48.25;34.10;;;4.60;99.90;;;;;;4924526;29;20492;-82
2022/03/02 03:29:24;;;;;;;48.97;34.45;;;4.70;99.90;;;;;;4908364;29;20046;-82
2022/03/02 03:31:49;;;;;;;48.05;33.55;;;4.50;99.90;;;;;;4940019;29;20554;-82
2022/03/02 03:34:15;;;;;;;48.28;33.10;;;4.50;99.90;;;;;;4924289;29;20130;-82
2022/03/02 03:36:41;;;;;;;50.45;33.53;;;4.40;99.90;;;;;;4938982;29;20039;-82
2022/03/02 03:39:08;;;;;;;46.28;33.05;;;4.40;99.90;;;;;;4939989;29;20047;-82
2022/03/02 03:41:34;;;;;;;48.25;33.50;;;4.40;99.90;;;;;;4939555;29;20487;-82
2022/03/02 03:44:00;;;;;;;47.80;33.38;;;4.40;99.90;;;;;;4955629;29;20078;-82
2022/03/02 03:46:26;;;;;;;48.60;32.80;;;4.40;99.90;;;;;;4958460;28;20514;-82
2022/03/02 03:48:51;;;;;;;51.60;35.22;;;4.60;99.90;;;;;;4974989;28;20038;-82
2022/03/02 03:51:17;;;;;;;48.53;33.47;;;4.40;99.90;;;;;;4957914;28;20126;-82
2022/03/02 03:53:43;;;;;;;49.22;33.78;;;4.40;99.90;;;;;;4958943;28;20149;-82
2022/03/02 03:56:09;;;;;;;49.17;34.20;;;4.80;99.90;;;;;;4974362;28;20304;-82
2022/03/02 03:58:35;;;;;;;47.78;34.10;;;4.70;99.90;;;;;;4974875;28;20046;-82
2022/03/02 04:01:00;;;;;;;51.72;34.20;;;4.30;99.90;;;;;;4974617;28;20053;-82
2022/03/02 04:03:26;;;;;;;48.45;34.53;;;4.30;99.90;;;;;;4958467;28;20035;-82
2022/03/02 04:05:52;;;;;;;52.03;35.78;;;4.30;99.90;;;;;;4957803;28;20031;-81
2022/03/02 04:08:18;;;;;;;52.20;36.35;;;4.30;99.90;;;;;;4958627;28;20098;-82
2022/03/02 04:10:45;;;;;;;47.92;34.28;;;4.30;99.90;;;;;;4974270;28;20034;-82
2022/03/02 04:13:12;;;;;;;51.15;35.60;;;4.40;99.90;;;;;;4942594;28;20042;-82
2022/03/02 04:15:38;;;;;;;54.08;36.50;;;4.60;99.90;;;;;;4958044;28;20043;-82
2022/03/02 04:18:06;;;;;;;49.53;34.90;;;5.30;99.90;;;;;;4958383;28;20121;-82
2022/03/02 04:20:35;;;;;;;52.20;36.28;;;4.30;99.90;;;;;;4957341;28;20046;-82
2022/03/02 04:23:01;;;;;;;53.72;35.35;;;4.20;99.90;;;;;;4974373;28;20038;-82
2022/03/02 04:25:27;;;;;;;54.08;36.40;;;4.30;99.90;;;;;;4942633;28;20039;-82
2022/03/02 04:27:52;;;;;;;51.92;35.50;;;4.30;99.90;;;;;;4954466;28;20046;-82
2022/03/02 04:30:18;;;;;;;51.83;35.50;;;4.20;99.90;;;;;;4938967;29;20043;-82
2022/03/02 04:32:44;;;;;;;52.83;36.05;;;4.20;99.90;;;;;;4939052;29;20046;-82
2022/03/02 04:35:12;;;;;;;48.78;34.83;;;4.20;99.90;;;;;;4938116;29;20046;-82
2022/03/02 04:37:39;;;;;;;50.83;33.75;;;4.30;99.90;;;;;;4938994;29;20507;-82
2022/03/02 04:40:07;;;;;;;50.63;35.13;;;5.50;99.90;;;;;;4938502;29;20090;-82
2022/03/02 04:42:33;;;;;;;49.15;34.55;;;4.30;99.90;;;;;;4938685;29;20170;-82
2022/03/02 04:44:59;;;;;;;48.15;33.97;;;4.30;99.90;;;;;;4954234;29;20164;-82
2022/03/02 04:47:25;;;;;;;52.92;36.10;;;4.30;99.90;;;;;;4922987;29;20043;-82
2022/03/02 04:49:51;;;;;;;51.40;35.45;;;4.30;99.90;;;;;;4937756;29;20129;-82
2022/03/02 04:52:18;;;;;;;49.85;34.88;;;4.30;99.90;;;;;;4954663;29;20038;-82
2022/03/02 04:57:29;;;;;;;55.38;36.08;;;4.30;99.90;;;;;;4940882;29;20082;-82
2022/03/02 04:59:55;;;;;;;50.30;35.17;;;4.90;99.90;;;;;;4954463;28;20470;-82
2022/03/02 05:02:20;;;;;;;53.85;35.75;;;4.20;99.90;;;;;;4954209;28;20131;-82
2022/03/02 05:04:46;;;;;;;53.45;37.13;;;4.30;99.90;;;;;;4938029;29;20043;-82
2022/03/02 05:07:12;;;;;;;52.22;35.75;;;4.20;99.90;;;;;;4953959;28;20050;-82
2022/03/02 05:09:38;;;;;;;52.28;35.45;;;4.20;99.90;;;;;;4954007;29;20094;-82
2022/03/02 05:12:04;;;;;;;50.20;35.38;;;4.20;99.90;;;;;;4953864;29;20130;-82
2022/03/02 05:14:30;;;;;;;52.80;35.03;;;4.30;99.90;;;;;;4946822;28;20038;-82
2022/03/02 05:16:56;;;;;;;49.33;34.65;;;4.30;99.90;;;;;;4957056;28;20084;-82
2022/03/02 05:19:22;;;;;;;56.10;36.65;;;4.20;99.90;;;;;;4973280;28;20078;-82
2022/03/02 05:21:48;;;;;;;50.38;35.20;;;4.30;99.90;;;;;;4956349;28;20039;-82
2022/03/02 05:24:14;;;;;;;54.72;36.45;;;4.20;99.90;;;;;;4973559;28;20100;-82
2022/03/02 05:26:41;;;;;;;52.25;35.30;;;4.20;99.90;;;;;;4973259;28;20491;-82
2022/03/02 05:29:07;;;;;;;51.83;34.88;;;5.40;99.90;;;;;;4941604;28;20507;-82
2022/03/02 05:31:33;;;;;;;47.80;34.20;;;4.20;99.90;;;;;;4972845;28;20043;-82
2022/03/02 05:33:59;;;;;;;50.42;35.22;;;4.20;99.90;;;;;;4973286;28;20089;-82
2022/03/02 05:36:26;;;;;;;49.53;35.65;;;4.20;99.90;;;;;;4956064;28;20042;-82
2022/03/02 05:38:53;;;;;;;48.05;33.38;;;4.30;99.90;;;;;;4953158;29;20402;-82
2022/03/02 05:41:20;;;;;;;49.05;34.35;;;4.20;99.90;;;;;;4937626;29;20098;-82
2022/03/02 05:43:46;;;;;;;48.33;34.50;;;4.20;99.90;;;;;;4943261;28;20509;-82
2022/03/02 05:46:12;;;;;;;52.45;35.67;;;4.20;99.90;;;;;;4961296;28;20121;-82
2022/03/02 05:48:37;;;;;;;55.20;37.00;;;4.20;99.90;;;;;;4961722;28;20074;-82
2022/03/02 05:51:04;;;;;;;52.72;38.08;;;4.20;99.90;;;;;;4928091;28;20104;-82
2022/03/02 05:53:29;;;;;;;61.08;42.30;;;4.20;99.90;;;;;;4951061;28;20050;-82
2022/03/02 05:55:55;;;;;;;50.95;36.67;;;4.60;99.90;;;;;;4940630;28;20125;-82
2022/03/02 05:58:21;;;;;;;52.88;35.70;;;5.00;99.90;;;;;;4940841;28;20070;-82
2022/03/02 06:00:47;;;;;;;51.00;36.95;;;4.20;99.90;;;;;;4972887;28;20138;-82
2022/03/02 06:03:13;;;;;;;50.05;34.75;;;4.20;99.90;;;;;;4955683;28;20117;-82
2022/03/02 06:05:40;;;;;;;50.25;34.13;;;4.90;99.90;;;;;;4955675;28;20058;-82
2022/03/02 06:08:07;;;;;;;49.70;33.88;;;4.10;99.90;;;;;;4939687;28;20483;-82
2022/03/02 06:10:34;;;;;;;47.80;33.53;;;4.30;99.90;;;;;;4968464;28;20039;-82
2022/03/02 06:13:00;;;;;;;49.65;33.90;;;4.10;99.90;;;;;;4951085;28;20108;-82
2022/03/02 06:15:26;;;;;;;46.35;33.17;;;4.10;99.90;;;;;;4954827;28;20063;-82
2022/03/02 06:17:52;;;;;;;50.10;34.92;;;4.10;99.90;;;;;;4954774;28;20551;-82
2022/03/02 06:20:18;;;;;;;48.53;32.53;;;4.20;99.90;;;;;;4949784;28;20037;-82
2022/03/02 06:22:45;;;;;;;48.10;33.50;;;4.20;99.90;;;;;;4956581;28;20073;-82
2022/03/02 06:25:11;;;;;;;51.38;34.30;;;4.20;99.90;;;;;;4956445;28;20035;-82
2022/03/02 06:27:38;;;;;;;48.47;34.20;;;4.10;99.90;;;;;;4952555;28;21054;-82
2022/03/02 06:30:08;;;;;;;50.22;33.72;;;4.10;99.90;;;;;;4950224;28;20039;-82
2022/03/02 06:32:34;;;;;;;51.55;34.83;;;4.10;99.90;;;;;;4945594;28;20035;-82
2022/03/02 06:35:00;;;;;;;48.78;34.55;;;4.80;99.90;;;;;;4931150;28;20046;-82
2022/03/02 06:37:26;;;;;;;50.15;33.88;;;4.00;99.90;;;;;;4953681;28;20042;-82
2022/03/02 06:39:54;;;;;;;49.92;33.72;;;4.00;99.90;;;;;;4950065;28;20418;-82
2022/03/02 06:42:23;;;;;;;48.80;33.85;;;4.10;99.90;;;;;;4946576;28;20173;-82
2022/03/02 06:44:56;;;;;;;49.90;34.40;;;4.00;99.90;;;;;;4946359;28;20047;-82
2022/03/02 06:47:27;;;;;;;49.00;33.60;;;4.00;99.90;;;;;;4963523;28;20070;-82
2022/03/02 06:50:04;;;;;;;47.33;32.83;;;4.70;99.90;;;;;;4951109;28;20483;-82
2022/03/02 06:52:42;;;;;;;47.58;34.03;;;4.00;99.90;;;;;;4959754;28;20047;-82
2022/03/02 06:55:10;;;;;;;50.45;33.53;;;4.00;99.90;;;;;;4959039;28;20173;-82
2022/03/02 06:57:37;;;;;;;45.85;32.50;;;4.00;99.90;;;;;;4946998;29;20043;-82
2022/03/02 07:00:16;;;;;;;48.80;34.08;;;4.00;99.90;;;;;;4972644;28;20042;-83
2022/03/02 07:02:51;;;;;;;51.45;35.38;;;4.00;99.90;;;;;;4990906;28;20039;-82
2022/03/02 07:05:18;;;;;;;48.40;33.60;;;4.50;99.90;;;;;;4959129;28;20483;-82
2022/03/02 07:07:45;;;;;;;51.45;34.38;;;4.00;99.90;;;;;;4959714;28;20031;-82
2022/03/02 07:10:11;;;;;;;49.70;34.55;;;4.00;99.90;;;;;;4959226;28;20034;-82
2022/03/02 07:12:38;;;;;;;52.25;35.33;;;4.10;99.90;;;;;;4956853;28;20051;-82
2022/03/02 07:15:04;;;;;;;47.35;33.72;;;4.10;99.90;;;;;;4935558;28;20495;-82
2022/03/02 07:17:32;;;;;;;50.33;34.60;;;4.20;99.90;;;;;;4952625;28;20042;-82
2022/03/02 07:20:07;;;;;;;46.38;32.70;;;4.50;99.90;;;;;;4947686;28;20403;-82
2022/03/02 07:22:46;;;;;;;45.47;32.95;;;4.30;99.90;;;;;;4973792;28;20554;-82
2022/03/02 07:25:26;;;;;;;52.15;35.95;;;4.40;99.90;;;;;;4973790;28;20034;-82
2022/03/02 07:27:55;;;;;;;52.92;36.53;;;4.30;99.90;;;;;;4971331;28;20031;-82
2022/03/02 07:30:21;;;;;;;50.50;35.60;;;4.30;99.90;;;;;;4969344;28;20027;-82
2022/03/02 07:32:47;;;;;;;51.38;35.42;;;4.30;99.90;;;;;;4957329;28;20047;-82
2022/03/02 07:35:15;;;;;;;44.10;32.70;;;4.30;99.90;;;;;;4973170;28;20037;-82
2022/03/02 07:37:44;;;;;;;48.60;32.97;;;4.30;99.90;;;;;;4962239;28;20487;-82
2022/03/02 07:40:10;;;;;;;46.13;33.38;;;4.30;99.90;;;;;;4973787;28;20045;-82
2022/03/02 07:42:37;;;;;;;49.83;34.10;;;4.30;99.90;;;;;;4958715;28;20077;-82
2022/03/02 07:45:04;;;;;;;47.97;33.72;;;4.30;99.90;;;;;;4940406;28;20096;-82
2022/03/02 07:47:29;;;;;;;45.45;32.63;;;4.40;99.90;;;;;;4945727;28;20122;-82
2022/03/02 07:49:55;;;;;;;47.63;33.65;;;4.30;99.90;;;;;;4973022;28;20452;-82
2022/03/02 07:52:25;;;;;;;50.28;34.53;;;4.40;99.90;;;;;;4958368;28;20047;-82
2022/03/02 07:54:58;;;;;;;47.70;33.75;;;4.40;99.90;;;;;;4954176;29;20050;-82
2022/03/02 07:57:24;;;;;;;45.58;33.42;;;4.30;99.90;;;;;;4938964;29;20078;-82
2022/03/02 07:59:52;;;;;;;43.33;31.73;;;4.50;99.90;;;;;;4955455;29;20459;-82
2022/03/02 08:02:21;;;;;;;43.55;28.83;;;4.60;99.90;;;;;;4938686;29;20044;-82
2022/03/02 08:04:54;;;;;;;42.60;31.25;;;4.70;99.90;;;;;;4955205;29;20044;-82
2022/03/02 08:07:21;;;;;;;45.72;32.85;;;4.70;99.90;;;;;;4954481;29;20097;-82
2022/03/02 08:09:47;;;;;;;45.80;32.22;;;4.70;99.90;;;;;;4954153;29;20054;-82
2022/03/02 08:12:13;;;;;;;42.00;29.45;;;4.80;99.90;;;;;;4938115;29;20154;-82
2022/03/02 08:14:40;;;;;;;42.72;28.17;;;4.90;99.90;;;;;;4954850;29;20126;-82
2022/03/02 08:17:06;;;;;;;42.00;29.95;;;5.80;99.90;;;;;;4939155;29;20404;-82
2022/03/02 08:19:31;;;;;;;43.15;30.27;;;5.20;99.90;;;;;;4939171;29;20039;-82
2022/03/02 08:22:19;;;;;;;43.47;28.92;;;5.20;99.90;;;;;;4953824;29;20052;-82
2022/03/02 08:24:53;;;;;;;40.30;27.38;;;5.30;99.90;;;;;;4938782;29;20062;-82
2022/03/02 08:27:19;;;;;;;41.25;29.65;;;5.40;99.90;;;;;;4939163;29;20039;-82
2022/03/02 08:29:53;;;;;;;38.17;27.25;;;5.60;99.90;;;;;;4938955;29;20055;-82
2022/03/02 08:32:20;;;;;;;38.58;25.92;;;5.80;99.90;;;;;;4938849;29;20083;-82
2022/03/02 08:34:46;;;;;;;39.20;27.02;;;5.90;99.90;;;;;;4943364;29;20122;-82
2022/03/02 08:37:14;;;;;;;36.33;25.60;;;6.00;99.90;;;;;;4954529;29;20043;-82
2022/03/02 08:39:40;;;;;;;34.90;26.15;;;6.00;99.90;;;;;;4954611;29;20423;-82
2022/03/02 08:42:06;;;;;;;36.03;25.83;;;6.00;99.90;;;;;;4954411;28;20058;-82
2022/03/02 08:44:32;;;;;;;38.22;25.83;;;6.10;99.90;;;;;;4969317;28;20054;-82
2022/03/02 08:46:58;;;;;;;33.47;23.38;;;6.30;99.90;;;;;;4937714;29;20055;-83
2022/03/02 08:49:24;;;;;;;34.20;23.40;;;6.30;99.90;;;;;;4954387;28;20147;-83
2022/03/02 08:51:50;;;;;;;37.20;25.42;;;6.50;99.90;;;;;;4953647;28;20067;-83
2022/03/02 08:54:18;;;;;;;34.70;25.58;;;6.50;99.90;;;;;;4954666;28;20047;-83
2022/03/02 08:56:47;;;;;;;36.05;25.88;;;6.60;99.90;;;;;;4953951;29;20054;-83
2022/03/02 08:59:16;;;;;;;33.00;23.50;;;6.70;99.90;;;;;;4954548;29;20496;-83
2022/03/02 09:01:50;;;;;;;32.78;23.85;;;6.80;99.90;;;;;;4954066;29;20075;-83
2022/03/02 09:04:17;;;;;;;31.25;21.73;;;6.90;99.90;;;;;;4960927;28;20172;-83
2022/03/02 09:06:45;;;;;;;32.05;21.63;;;7.10;99.90;;;;;;4964671;28;20177;-83
2022/03/02 09:09:11;;;;;;;33.78;23.10;;;7.30;98.60;;;;;;4957240;28;20122;-83
2022/03/02 09:11:38;;;;;;;29.70;22.13;;;7.40;97.60;;;;;;4973214;28;20049;-83
2022/03/02 09:14:05;;;;;;;30.70;20.15;;;7.50;98.10;;;;;;4956719;28;20043;-83
2022/03/02 09:16:31;;;;;;;30.05;20.17;;;7.60;96.50;;;;;;4957268;28;20062;-83
2022/03/02 09:18:57;;;;;;;27.40;20.10;;;7.80;95.70;;;;;;4957640;28;20038;-83
2022/03/02 09:21:25;;;;;;;27.38;18.90;;;7.90;93.90;;;;;;4940486;28;20047;-83
2022/03/02 09:23:53;;;;;;;29.20;21.05;;;7.80;92.90;;;;;;4972778;28;20066;-83
2022/03/02 09:26:20;;;;;;;32.00;21.65;;;8.00;93.30;;;;;;4956958;28;20077;-83
2022/03/02 09:28:50;;;;;;;29.55;20.45;;;8.10;91.80;;;;;;4956853;28;20130;-83
2022/03/02 09:31:19;;;;;;;28.75;20.63;;;8.10;90.30;;;;;;4973119;28;20051;-83
2022/03/02 09:33:58;;;;;;;34.35;23.77;;;8.00;90.70;;;;;;4957258;28;20050;-83
2022/03/02 09:36:25;;;;;;;27.92;19.42;;;8.20;92.20;;;;;;4956538;28;20050;-83
2022/03/02 09:38:53;;;;;;;26.23;19.63;;;8.50;90.90;;;;;;4957026;28;20039;-83
2022/03/02 09:41:49;;;;;;;27.05;19.33;;;8.60;89.90;;;;;;4972940;28;20554;-83
2022/03/02 09:44:20;;;;;;;27.77;18.85;;;8.70;87.80;;;;;;4937783;28;20060;-83
2022/03/02 09:46:55;;;;;;;27.83;19.17;;;8.80;85.80;;;;;;4951936;29;20051;-82
2022/03/02 09:49:22;;;;;;;25.65;17.33;;;9.00;87.80;;;;;;4953833;28;20042;-82
2022/03/02 09:51:58;;;;;;;25.00;16.77;;;9.10;76.40;;;;;;4953086;28;20043;-82
2022/03/02 09:54:25;;;;;;;26.25;18.52;;;9.10;76.50;;;;;;4959169;28;20050;-82
2022/03/02 09:56:51;;;;;;;26.52;18.52;;;9.10;78.50;;;;;;4949388;28;20047;-82
2022/03/02 09:59:18;;;;;;;27.50;17.40;;;9.10;75.90;;;;;;4954035;28;20050;-82
2022/03/02 10:01:44;;;;;;;24.80;17.98;;;9.20;76.60;;;;;;4955602;28;20071;-82
2022/03/02 10:04:22;;;;;;;23.60;17.38;;;9.30;77.80;;;;;;4956666;28;20439;-82
2022/03/02 10:07:26;;;;;;;25.70;19.15;;;9.40;73.20;;;;;;4940665;28;20042;-83
2022/03/02 10:09:51;;;;;;;24.65;17.05;;;9.40;73.00;;;;;;4972953;28;20407;-83
2022/03/02 10:12:20;;;;;;;25.23;17.02;;;9.50;72.70;;;;;;4955181;28;21565;-83
2022/03/02 10:14:49;;;;;;;25.63;17.50;;;9.50;72.50;;;;;;4953666;28;20053;-83
2022/03/02 10:17:21;;;;;;;24.88;18.40;;;9.50;73.70;;;;;;4961394;28;20042;-83
2022/03/02 10:19:53;;;;;;;;;;;9.60;73.00;;;;;;4956950;28;20085;-83
2022/03/02 10:22:40;;;;;;;26.83;17.27;;;9.60;72.20;;;;;;4972278;28;20042;-83
2022/03/02 10:25:15;;;;;;;23.25;17.25;;;9.70;76.20;;;;;;4956983;28;20049;-83
2022/03/02 10:27:50;;;;;;;23.92;17.17;;;9.90;76.50;;;;;;4956323;28;20395;-83
2022/03/02 10:30:16;;;;;;;23.92;16.80;;;10.00;72.50;;;;;;4975353;28;20073;-83
2022/03/02 10:32:43;;;;;;;23.10;16.48;;;10.00;70.70;;;;;;4935076;28;20094;-83
2022/03/02 10:35:13;;;;;;;25.05;17.33;;;10.20;70.40;;;;;;4972504;28;20530;-83
2022/03/02 10:37:58;;;;;;;23.55;18.10;;;10.20;69.30;;;;;;4969853;28;20086;-83
2022/03/02 10:40:24;;;;;;;26.20;18.75;;;10.30;71.70;;;;;;4953604;28;20074;-82
2022/03/02 10:42:57;;;;;;;24.95;18.35;;;10.40;69.60;;;;;;4969623;28;20451;-82
2022/03/02 10:45:24;;;;;;;23.70;16.77;;;10.40;71.50;;;;;;4975847;28;20511;-82
2022/03/02 10:47:55;;;;;;;23.05;17.17;;;10.40;68.20;;;;;;4959963;28;20051;-82
2022/03/02 10:50:29;;;;;;;23.98;16.38;;;10.30;69.40;;;;;;4959190;28;20046;-82
2022/03/02 10:52:56;;;;;;;23.83;17.42;;;10.40;68.30;;;;;;4975988;28;20062;-82
2022/03/02 10:55:22;;;;;;;23.20;16.92;;;10.50;66.20;;;;;;4959594;28;20171;-82
2022/03/02 10:57:52;;;;;;;23.90;17.40;;;10.50;66.70;;;;;;4960034;28;20043;-82
2022/03/02 11:00:19;;;;;;;22.33;15.73;;;10.40;69.50;;;;;;4975058;28;20061;-82
2022/03/02 11:02:49;;;;;;;22.65;17.58;;;10.60;67.20;;;;;;4973638;28;20043;-83
2022/03/02 11:05:20;;;;;;;26.00;18.70;;;10.40;68.00;;;;;;4972672;28;20046;-83
2022/03/02 11:07:47;;;;;;;23.67;17.80;;;10.40;66.50;;;;;;4975727;28;20147;-83
2022/03/02 11:10:23;;;;;;;24.92;17.67;;;10.10;67.60;;;;;;4958897;28;20031;-83
2022/03/02 11:12:50;;;;;;;23.15;17.58;;;10.50;68.30;;;;;;4958751;28;20043;-83
2022/03/02 11:15:17;;;;;;;23.60;16.52;;;10.70;66.80;;;;;;4944484;29;20443;-83
2022/03/02 11:17:55;;;;;;;21.77;15.80;;;10.60;65.50;;;;;;4972352;28;20043;-83
2022/03/02 11:20:22;;;;;;;24.70;16.27;;;10.60;64.20;;;;;;4971919;28;20491;-83
2022/03/02 11:23:02;;;;;;;25.48;17.50;;;10.70;65.10;;;;;;4940230;29;20043;-83
2022/03/02 11:25:50;;;;;;;24.05;17.52;;;10.90;62.60;;;;;;4972110;28;20035;-83
2022/03/02 11:28:19;;;;;;;22.00;16.25;;;10.70;63.40;;;;;;4956138;29;20047;-83
2022/03/02 11:30:53;;;;;;;22.58;17.48;;;10.50;63.40;;;;;;4971200;28;20499;-83
2022/03/02 11:33:27;;;;;;;24.25;17.52;;;10.60;61.00;;;;;;4970988;28;20046;-83
2022/03/02 11:35:59;;;;;;;23.38;17.73;;;10.20;62.90;;;;;;4966384;28;20039;-82
2022/03/02 11:38:32;;;;;;;25.45;16.77;;;10.30;65.00;;;;;;4974638;28;20078;-82
2022/03/02 11:40:59;;;;;;;22.25;16.23;;;10.40;65.50;;;;;;4971790;28;20125;-82
2022/03/02 11:43:32;;;;;;;23.08;16.20;;;10.70;64.30;;;;;;4958769;28;20046;-82
2022/03/02 11:46:04;;;;;;;22.40;16.48;;;10.60;61.60;;;;;;4958572;28;20059;-82
2022/03/02 11:48:31;;;;;;;;;;;10.40;61.10;;;;;;4975808;28;20038;-82
2022/03/02 11:51:01;;;;;;;23.73;16.17;;;10.50;61.30;;;;;;4974478;28;19918;-82
2022/03/02 11:53:34;;;;;;;22.90;17.27;;;10.70;63.10;;;;;;4974774;28;20046;-82
2022/03/02 11:56:01;;;;;;;21.90;15.98;;;10.20;60.50;;;;;;4974574;28;20054;-82
2022/03/02 11:58:47;;;;;;;23.05;16.63;;;10.20;62.10;;;;;;4974069;28;20042;-82
2022/03/02 12:01:13;;;;;;;20.52;14.30;;;10.20;61.00;;;;;;4952201;28;20047;-82
2022/03/02 12:03:54;;;;;;;22.75;16.23;;;10.60;60.60;;;;;;4955407;29;20043;-82
2022/03/02 12:06:20;;;;;;;21.52;15.93;;;10.70;61.00;;;;;;4938598;29;20459;-82
2022/03/02 12:08:52;;;;;;;23.90;16.80;;;10.70;62.10;;;;;;4955306;29;20137;-82
2022/03/02 12:11:24;;;;;;;20.65;15.55;;;10.70;59.70;;;;;;4973933;28;20045;-82
2022/03/02 12:14:03;;;;;;;;;;;10.70;59.60;;;;;;4958726;28;20047;-82
2022/03/02 12:16:48;;;;;;;21.88;14.27;;;10.80;59.20;;;;;;4958423;28;19918;-82
2022/03/02 12:19:22;;;;;;;22.40;15.32;;;10.80;58.60;;;;;;4958231;28;20046;-82
2022/03/02 12:21:49;;;;;;;22.08;16.20;;;10.90;59.90;;;;;;4973045;28;20129;-82
2022/03/02 12:24:33;;;;;;;22.75;16.05;;;10.90;60.70;;;;;;4955304;28;20522;-82
2022/03/02 12:27:05;;;;;;;22.55;16.58;;;11.00;60.70;;;;;;4961659;28;20038;-82
2022/03/02 12:29:31;;;;;;;22.90;16.67;;;11.00;59.70;;;;;;4974106;28;20043;-82
2022/03/02 12:32:15;;;;;;;24.30;16.30;;;11.00;62.20;;;;;;4957768;28;20074;-82
2022/03/02 12:34:52;;;;;;;21.38;15.85;;;11.10;62.10;;;;;;4959953;28;20046;-82
2022/03/02 12:37:20;;;;;;;22.80;15.45;;;11.00;61.60;;;;;;4974151;28;20125;-82
2022/03/02 12:39:47;;;;;;;22.50;15.90;;;11.00;58.60;;;;;;4974206;28;20470;-82
2022/03/02 12:42:14;;;;;;;23.00;16.85;;;10.90;60.10;;;;;;4958096;28;20054;-82
2022/03/02 12:44:46;;;;;;;23.02;18.20;;;10.70;62.10;;;;;;4973991;28;20043;-82